KNBG

New Orleans NAS JRB / Alvin Callender Field Airport

New Orleans, Louisiana, USA
METAR KNBG 221255Z 03007KT 10SM BKN250 18/12 A3016 RMK SLP212 T01780117 $
Observed Flight Rules
Oct-22 @ 12:55 UTC (2 hours ago) Visual Flight Rules
Wind Visibility Clouds
30° at 7 knots 10 miles
  • Broken at 25,000' AGL
Temperatures Readings
Current 18°C / 64°F
Dewpoint 12°C / 54°F
Humidity 68%
Altimeter 30.16" Hg
Pressure 1021.2 hPa
Elevation 1
METAR KNBG 221255Z 03007KT 10SM BKN250 18/12 A3016 RMK SLP212 T01780117 $
Observed Flight Rules
Oct-22 @ 12:55 UTC
(2 hours ago)
VFR
Wind Visibility
30° at 7 knots 10 miles
Clouds
  • Broken at 25,000' AGL
Temperature Dewpoint
18°C / 64°F 12°C / 54°F
Humidity Altimeter Pressure
68% 30.16" Hg 1021.2 hPa